sensor_id;sensor_type;location;lat;lon;timestamp;P1;durP1;ratioP1;P2;durP2;ratioP2
45970;SDS011;31681;48.982;8.394;2023-06-10T00:01:47;8.15;;;7.35;;
45970;SDS011;31681;48.982;8.394;2023-06-10T00:04:13;9.93;;;7.65;;
45970;SDS011;31681;48.982;8.394;2023-06-10T00:06:38;8.18;;;7.20;;
45970;SDS011;31681;48.982;8.394;2023-06-10T00:09:06;8.40;;;7.28;;
45970;SDS011;31681;48.982;8.394;2023-06-10T00:11:43;11.57;;;8.20;;
45970;SDS011;31681;48.982;8.394;2023-06-10T00:14:13;8.30;;;7.47;;
45970;SDS011;31681;48.982;8.394;2023-06-10T00:16:41;11.32;;;7.45;;
45970;SDS011;31681;48.982;8.394;2023-06-10T00:19:13;8.07;;;7.03;;
45970;SDS011;31681;48.982;8.394;2023-06-10T00:21:46;9.65;;;7.60;;
45970;SDS011;31681;48.982;8.394;2023-06-10T00:24:12;8.32;;;7.50;;
45970;SDS011;31681;48.982;8.394;2023-06-10T00:26:39;9.07;;;7.68;;
45970;SDS011;31681;48.982;8.394;2023-06-10T00:29:13;11.68;;;8.00;;
45970;SDS011;31681;48.982;8.394;2023-06-10T00:31:41;8.50;;;7.70;;
45970;SDS011;31681;48.982;8.394;2023-06-10T00:34:14;9.15;;;7.32;;
45970;SDS011;31681;48.982;8.394;2023-06-10T00:36:42;8.80;;;7.68;;
45970;SDS011;31681;48.982;8.394;2023-06-10T00:39:10;10.40;;;7.43;;
45970;SDS011;31681;48.982;8.394;2023-06-10T00:41:35;8.90;;;7.88;;
45970;SDS011;31681;48.982;8.394;2023-06-10T00:44:03;9.75;;;7.30;;
45970;SDS011;31681;48.982;8.394;2023-06-10T00:46:28;10.25;;;7.45;;
45970;SDS011;31681;48.982;8.394;2023-06-10T00:49:07;9.07;;;7.38;;
45970;SDS011;31681;48.982;8.394;2023-06-10T00:51:39;10.55;;;7.63;;
45970;SDS011;31681;48.982;8.394;2023-06-10T00:54:06;11.23;;;7.93;;
45970;SDS011;31681;48.982;8.394;2023-06-10T00:56:40;8.82;;;7.93;;
45970;SDS011;31681;48.982;8.394;2023-06-10T00:59:08;8.20;;;7.40;;
45970;SDS011;31681;48.982;8.394;2023-06-10T01:01:33;8.27;;;7.43;;
45970;SDS011;31681;48.982;8.394;2023-06-10T01:04:01;8.23;;;7.30;;
45970;SDS011;31681;48.982;8.394;2023-06-10T01:11:47;9.43;;;7.68;;
45970;SDS011;31681;48.982;8.394;2023-06-10T01:14:14;7.97;;;7.18;;
45970;SDS011;31681;48.982;8.394;2023-06-10T01:16:41;9.00;;;7.72;;
45970;SDS011;31681;48.982;8.394;2023-06-10T01:19:08;10.18;;;7.57;;
45970;SDS011;31681;48.982;8.394;2023-06-10T01:21:34;7.90;;;7.10;;
45970;SDS011;31681;48.982;8.394;2023-06-10T01:24:02;8.80;;;7.88;;
45970;SDS011;31681;48.982;8.394;2023-06-10T01:26:29;7.68;;;6.88;;
45970;SDS011;31681;48.982;8.394;2023-06-10T01:28:59;9.35;;;7.45;;
45970;SDS011;31681;48.982;8.394;2023-06-10T01:33:59;7.60;;;6.68;;
45970;SDS011;31681;48.982;8.394;2023-06-10T01:36:27;7.95;;;7.15;;
45970;SDS011;31681;48.982;8.394;2023-06-10T01:38:53;7.47;;;6.70;;
45970;SDS011;31681;48.982;8.394;2023-06-10T01:41:18;7.75;;;6.47;;
45970;SDS011;31681;48.982;8.394;2023-06-10T01:43:46;8.32;;;7.55;;
45970;SDS011;31681;48.982;8.394;2023-06-10T01:46:12;10.73;;;7.32;;
45970;SDS011;31681;48.982;8.394;2023-06-10T01:48:38;9.00;;;6.65;;
45970;SDS011;31681;48.982;8.394;2023-06-10T01:51:04;7.97;;;7.18;;
45970;SDS011;31681;48.982;8.394;2023-06-10T01:53:29;7.78;;;7.05;;
45970;SDS011;31681;48.982;8.394;2023-06-10T01:55:57;7.55;;;6.72;;
45970;SDS011;31681;48.982;8.394;2023-06-10T01:58:22;9.55;;;8.32;;
45970;SDS011;31681;48.982;8.394;2023-06-10T02:00:47;10.15;;;7.38;;
45970;SDS011;31681;48.982;8.394;2023-06-10T02:03:13;10.80;;;6.90;;
45970;SDS011;31681;48.982;8.394;2023-06-10T02:05:38;9.40;;;7.57;;
45970;SDS011;31681;48.982;8.394;2023-06-10T02:08:04;7.40;;;6.68;;
45970;SDS011;31681;48.982;8.394;2023-06-10T02:10:29;9.52;;;7.55;;
45970;SDS011;31681;48.982;8.394;2023-06-10T02:12:56;7.97;;;7.15;;
45970;SDS011;31681;48.982;8.394;2023-06-10T02:15:21;8.20;;;7.38;;
45970;SDS011;31681;48.982;8.394;2023-06-10T02:17:46;9.00;;;7.18;;
45970;SDS011;31681;48.982;8.394;2023-06-10T02:20:14;7.80;;;6.85;;
45970;SDS011;31681;48.982;8.394;2023-06-10T02:22:39;7.80;;;7.00;;
45970;SDS011;31681;48.982;8.394;2023-06-10T02:25:07;8.20;;;7.32;;
45970;SDS011;31681;48.982;8.394;2023-06-10T02:27:32;8.52;;;7.57;;
45970;SDS011;31681;48.982;8.394;2023-06-10T02:29:58;8.52;;;7.40;;
45970;SDS011;31681;48.982;8.394;2023-06-10T02:32:23;8.50;;;7.43;;
45970;SDS011;31681;48.982;8.394;2023-06-10T02:34:50;7.28;;;6.55;;
45970;SDS011;31681;48.982;8.394;2023-06-10T02:37:16;7.60;;;6.90;;
45970;SDS011;31681;48.982;8.394;2023-06-10T02:39:44;7.80;;;6.68;;
45970;SDS011;31681;48.982;8.394;2023-06-10T02:42:13;9.40;;;7.25;;
45970;SDS011;31681;48.982;8.394;2023-06-10T02:44:44;9.38;;;6.60;;
45970;SDS011;31681;48.982;8.394;2023-06-10T02:47:14;8.65;;;7.15;;
45970;SDS011;31681;48.982;8.394;2023-06-10T02:49:40;7.50;;;6.70;;
45970;SDS011;31681;48.982;8.394;2023-06-10T02:52:05;10.25;;;7.10;;
45970;SDS011;31681;48.982;8.394;2023-06-10T02:54:32;8.15;;;6.70;;
45970;SDS011;31681;48.982;8.394;2023-06-10T02:56:57;7.68;;;6.82;;
45970;SDS011;31681;48.982;8.394;2023-06-10T02:59:26;8.43;;;7.53;;
45970;SDS011;31681;48.982;8.394;2023-06-10T03:01:54;8.23;;;6.95;;
45970;SDS011;31681;48.982;8.394;2023-06-10T03:04:20;9.20;;;7.28;;
45970;SDS011;31681;48.982;8.394;2023-06-10T03:06:54;8.88;;;7.65;;
45970;SDS011;31681;48.982;8.394;2023-06-10T03:09:30;10.02;;;7.30;;
45970;SDS011;31681;48.982;8.394;2023-06-10T03:11:58;8.15;;;6.82;;
45970;SDS011;31681;48.982;8.394;2023-06-10T03:14:25;10.80;;;7.68;;
45970;SDS011;31681;48.982;8.394;2023-06-10T03:16:50;9.82;;;7.30;;
45970;SDS011;31681;48.982;8.394;2023-06-10T03:19:16;9.77;;;7.53;;
45970;SDS011;31681;48.982;8.394;2023-06-10T03:21:48;8.55;;;7.60;;
45970;SDS011;31681;48.982;8.394;2023-06-10T03:24:15;8.63;;;7.70;;
45970;SDS011;31681;48.982;8.394;2023-06-10T03:26:42;9.25;;;7.88;;
45970;SDS011;31681;48.982;8.394;2023-06-10T03:29:07;8.45;;;7.65;;
45970;SDS011;31681;48.982;8.394;2023-06-10T03:31:32;8.70;;;7.80;;
45970;SDS011;31681;48.982;8.394;2023-06-10T03:33:58;10.07;;;7.85;;
45970;SDS011;31681;48.982;8.394;2023-06-10T03:36:23;8.80;;;7.90;;
45970;SDS011;31681;48.982;8.394;2023-06-10T03:38:49;9.88;;;8.20;;
45970;SDS011;31681;48.982;8.394;2023-06-10T03:41:17;8.30;;;7.43;;
45970;SDS011;31681;48.982;8.394;2023-06-10T03:43:43;8.48;;;7.50;;
45970;SDS011;31681;48.982;8.394;2023-06-10T03:46:10;9.88;;;7.88;;
45970;SDS011;31681;48.982;8.394;2023-06-10T03:48:36;10.45;;;8.07;;
45970;SDS011;31681;48.982;8.394;2023-06-10T03:51:02;9.15;;;7.57;;
45970;SDS011;31681;48.982;8.394;2023-06-10T03:53:27;9.48;;;7.38;;
45970;SDS011;31681;48.982;8.394;2023-06-10T03:55:53;8.40;;;7.55;;
45970;SDS011;31681;48.982;8.394;2023-06-10T03:58:21;10.98;;;7.15;;
45970;SDS011;31681;48.982;8.394;2023-06-10T04:00:47;9.82;;;7.45;;
45970;SDS011;31681;48.982;8.394;2023-06-10T04:03:12;10.75;;;7.50;;
45970;SDS011;31681;48.982;8.394;2023-06-10T04:05:42;9.43;;;7.20;;
45970;SDS011;31681;48.982;8.394;2023-06-10T04:08:08;10.57;;;7.97;;
45970;SDS011;31681;48.982;8.394;2023-06-10T04:10:33;8.07;;;7.00;;
45970;SDS011;31681;48.982;8.394;2023-06-10T04:12:59;8.35;;;7.13;;
45970;SDS011;31681;48.982;8.394;2023-06-10T04:15:29;9.35;;;7.57;;
45970;SDS011;31681;48.982;8.394;2023-06-10T04:17:54;8.55;;;7.50;;
45970;SDS011;31681;48.982;8.394;2023-06-10T04:20:22;7.78;;;7.03;;
45970;SDS011;31681;48.982;8.394;2023-06-10T04:22:48;8.80;;;7.28;;
45970;SDS011;31681;48.982;8.394;2023-06-10T04:25:14;7.55;;;6.75;;
45970;SDS011;31681;48.982;8.394;2023-06-10T04:27:41;9.73;;;7.30;;
45970;SDS011;31681;48.982;8.394;2023-06-10T04:30:06;10.02;;;7.45;;
45970;SDS011;31681;48.982;8.394;2023-06-10T04:32:34;7.70;;;6.93;;
45970;SDS011;31681;48.982;8.394;2023-06-10T04:35:00;7.13;;;6.43;;
45970;SDS011;31681;48.982;8.394;2023-06-10T04:37:25;7.43;;;6.65;;
45970;SDS011;31681;48.982;8.394;2023-06-10T04:39:51;7.85;;;6.75;;
45970;SDS011;31681;48.982;8.394;2023-06-10T04:42:18;8.93;;;6.60;;
45970;SDS011;31681;48.982;8.394;2023-06-10T04:44:44;8.10;;;7.05;;
45970;SDS011;31681;48.982;8.394;2023-06-10T04:47:09;7.20;;;6.47;;
45970;SDS011;31681;48.982;8.394;2023-06-10T04:49:34;7.30;;;6.60;;
45970;SDS011;31681;48.982;8.394;2023-06-10T04:52:01;7.88;;;6.50;;
45970;SDS011;31681;48.982;8.394;2023-06-10T04:54:32;7.80;;;6.90;;
45970;SDS011;31681;48.982;8.394;2023-06-10T04:56:57;6.82;;;6.22;;
45970;SDS011;31681;48.982;8.394;2023-06-10T04:59:22;7.07;;;6.38;;
45970;SDS011;31681;48.982;8.394;2023-06-10T05:01:50;7.53;;;6.82;;
45970;SDS011;31681;48.982;8.394;2023-06-10T05:04:23;8.45;;;6.57;;
45970;SDS011;31681;48.982;8.394;2023-06-10T05:06:48;7.00;;;6.25;;
45970;SDS011;31681;48.982;8.394;2023-06-10T05:09:13;11.65;;;6.72;;
45970;SDS011;31681;48.982;8.394;2023-06-10T05:11:39;7.88;;;6.50;;
45970;SDS011;31681;48.982;8.394;2023-06-10T05:14:06;7.47;;;6.68;;
45970;SDS011;31681;48.982;8.394;2023-06-10T05:16:39;8.05;;;6.78;;
45970;SDS011;31681;48.982;8.394;2023-06-10T05:19:07;8.82;;;6.53;;
45970;SDS011;31681;48.982;8.394;2023-06-10T05:21:32;6.53;;;5.80;;
45970;SDS011;31681;48.982;8.394;2023-06-10T05:23:57;7.22;;;6.43;;
45970;SDS011;31681;48.982;8.394;2023-06-10T05:26:23;6.63;;;5.93;;
45970;SDS011;31681;48.982;8.394;2023-06-10T05:28:48;7.65;;;6.30;;
45970;SDS011;31681;48.982;8.394;2023-06-10T05:31:13;8.13;;;6.97;;
45970;SDS011;31681;48.982;8.394;2023-06-10T05:33:41;6.80;;;5.95;;
45970;SDS011;31681;48.982;8.394;2023-06-10T05:36:09;6.55;;;5.90;;
45970;SDS011;31681;48.982;8.394;2023-06-10T05:38:34;6.18;;;5.57;;
45970;SDS011;31681;48.982;8.394;2023-06-10T05:40:59;6.63;;;5.97;;
45970;SDS011;31681;48.982;8.394;2023-06-10T05:43:25;7.25;;;5.70;;
45970;SDS011;31681;48.982;8.394;2023-06-10T05:45:50;7.82;;;5.85;;
45970;SDS011;31681;48.982;8.394;2023-06-10T05:48:15;7.63;;;5.93;;
45970;SDS011;31681;48.982;8.394;2023-06-10T05:50:40;8.18;;;6.15;;
45970;SDS011;31681;48.982;8.394;2023-06-10T05:53:07;7.40;;;6.47;;
45970;SDS011;31681;48.982;8.394;2023-06-10T05:55:40;6.75;;;6.05;;
45970;SDS011;31681;48.982;8.394;2023-06-10T05:58:05;6.22;;;5.63;;
45970;SDS011;31681;48.982;8.394;2023-06-10T06:00:30;7.55;;;6.40;;
45970;SDS011;31681;48.982;8.394;2023-06-10T06:02:56;7.45;;;5.90;;
45970;SDS011;31681;48.982;8.394;2023-06-10T06:05:24;6.13;;;5.50;;
45970;SDS011;31681;48.982;8.394;2023-06-10T06:07:50;6.70;;;6.10;;
45970;SDS011;31681;48.982;8.394;2023-06-10T06:10:16;6.45;;;5.45;;
45970;SDS011;31681;48.982;8.394;2023-06-10T06:12:41;6.82;;;5.68;;
45970;SDS011;31681;48.982;8.394;2023-06-10T06:15:16;6.28;;;5.40;;
45970;SDS011;31681;48.982;8.394;2023-06-10T06:17:52;5.43;;;4.93;;
45970;SDS011;31681;48.982;8.394;2023-06-10T06:20:18;6.53;;;5.32;;
45970;SDS011;31681;48.982;8.394;2023-06-10T06:22:50;7.15;;;5.43;;
45970;SDS011;31681;48.982;8.394;2023-06-10T06:25:31;5.25;;;4.75;;
45970;SDS011;31681;48.982;8.394;2023-06-10T06:28:03;5.85;;;5.22;;
45970;SDS011;31681;48.982;8.394;2023-06-10T06:30:38;5.82;;;5.22;;
45970;SDS011;31681;48.982;8.394;2023-06-10T06:33:13;6.25;;;4.95;;
45970;SDS011;31681;48.982;8.394;2023-06-10T06:35:41;6.13;;;5.53;;
45970;SDS011;31681;48.982;8.394;2023-06-10T06:38:15;5.88;;;5.30;;
45970;SDS011;31681;48.982;8.394;2023-06-10T06:40:41;6.72;;;5.60;;
45970;SDS011;31681;48.982;8.394;2023-06-10T06:43:16;6.25;;;5.20;;
45970;SDS011;31681;48.982;8.394;2023-06-10T06:45:54;6.10;;;5.50;;
45970;SDS011;31681;48.982;8.394;2023-06-10T06:48:19;5.90;;;5.30;;
45970;SDS011;31681;48.982;8.394;2023-06-10T06:50:50;7.18;;;5.70;;
45970;SDS011;31681;48.982;8.394;2023-06-10T06:53:31;6.47;;;5.80;;
45970;SDS011;31681;48.982;8.394;2023-06-10T06:55:56;6.40;;;5.45;;
45970;SDS011;31681;48.982;8.394;2023-06-10T06:58:34;6.18;;;5.57;;
45970;SDS011;31681;48.982;8.394;2023-06-10T07:01:02;6.00;;;5.40;;
45970;SDS011;31681;48.982;8.394;2023-06-10T07:03:32;6.88;;;5.55;;
45970;SDS011;31681;48.982;8.394;2023-06-10T07:06:09;6.10;;;5.50;;
45970;SDS011;31681;48.982;8.394;2023-06-10T07:08:44;5.72;;;5.13;;
45970;SDS011;31681;48.982;8.394;2023-06-10T07:11:13;7.28;;;5.38;;
45970;SDS011;31681;48.982;8.394;2023-06-10T07:13:53;5.18;;;4.68;;
45970;SDS011;31681;48.982;8.394;2023-06-10T07:16:26;6.40;;;5.72;;
45970;SDS011;31681;48.982;8.394;2023-06-10T07:19:00;6.53;;;5.57;;
45970;SDS011;31681;48.982;8.394;2023-06-10T07:21:34;10.27;;;5.30;;
45970;SDS011;31681;48.982;8.394;2023-06-10T07:24:01;5.72;;;5.22;;
45970;SDS011;31681;48.982;8.394;2023-06-10T07:26:38;6.20;;;5.60;;
45970;SDS011;31681;48.982;8.394;2023-06-10T07:29:11;5.97;;;5.28;;
45970;SDS011;31681;48.982;8.394;2023-06-10T07:31:39;7.20;;;5.40;;
45970;SDS011;31681;48.982;8.394;2023-06-10T07:34:08;6.05;;;5.45;;
45970;SDS011;31681;48.982;8.394;2023-06-10T07:36:41;5.70;;;5.10;;
45970;SDS011;31681;48.982;8.394;2023-06-10T07:39:22;7.32;;;5.15;;
45970;SDS011;31681;48.982;8.394;2023-06-10T07:41:55;5.78;;;5.18;;
45970;SDS011;31681;48.982;8.394;2023-06-10T07:44:25;6.88;;;5.40;;
45970;SDS011;31681;48.982;8.394;2023-06-10T07:46:50;6.25;;;5.68;;
45970;SDS011;31681;48.982;8.394;2023-06-10T07:49:18;6.70;;;5.40;;
45970;SDS011;31681;48.982;8.394;2023-06-10T07:51:53;6.93;;;6.03;;
45970;SDS011;31681;48.982;8.394;2023-06-10T07:54:18;7.22;;;5.70;;
45970;SDS011;31681;48.982;8.394;2023-06-10T07:56:44;6.63;;;5.47;;
45970;SDS011;31681;48.982;8.394;2023-06-10T07:59:09;6.35;;;5.07;;
45970;SDS011;31681;48.982;8.394;2023-06-10T08:01:40;6.22;;;5.63;;
45970;SDS011;31681;48.982;8.394;2023-06-10T08:04:21;12.30;;;6.28;;
45970;SDS011;31681;48.982;8.394;2023-06-10T08:06:52;7.45;;;5.35;;
45970;SDS011;31681;48.982;8.394;2023-06-10T08:09:26;6.40;;;5.22;;
45970;SDS011;31681;48.982;8.394;2023-06-10T08:12:01;5.80;;;5.18;;
45970;SDS011;31681;48.982;8.394;2023-06-10T08:14:32;5.97;;;5.15;;
45970;SDS011;31681;48.982;8.394;2023-06-10T08:16:58;5.68;;;5.13;;
45970;SDS011;31681;48.982;8.394;2023-06-10T08:19:36;5.82;;;4.90;;
45970;SDS011;31681;48.982;8.394;2023-06-10T08:22:09;7.85;;;5.20;;
45970;SDS011;31681;48.982;8.394;2023-06-10T08:24:41;5.95;;;5.45;;
45970;SDS011;31681;48.982;8.394;2023-06-10T08:27:14;6.38;;;5.00;;
45970;SDS011;31681;48.982;8.394;2023-06-10T08:29:46;5.43;;;4.93;;
45970;SDS011;31681;48.982;8.394;2023-06-10T08:32:21;5.53;;;4.97;;
45970;SDS011;31681;48.982;8.394;2023-06-10T08:34:46;5.63;;;4.90;;
45970;SDS011;31681;48.982;8.394;2023-06-10T08:37:19;5.25;;;4.75;;
45970;SDS011;31681;48.982;8.394;2023-06-10T08:40:01;6.65;;;4.45;;
45970;SDS011;31681;48.982;8.394;2023-06-10T08:42:39;7.40;;;4.70;;
45970;SDS011;31681;48.982;8.394;2023-06-10T08:45:05;5.43;;;4.93;;
45970;SDS011;31681;48.982;8.394;2023-06-10T08:47:32;4.75;;;4.10;;
45970;SDS011;31681;48.982;8.394;2023-06-10T08:50:02;5.00;;;4.28;;
45970;SDS011;31681;48.982;8.394;2023-06-10T08:52:37;5.53;;;4.57;;
45970;SDS011;31681;48.982;8.394;2023-06-10T08:57:57;6.50;;;4.60;;
45970;SDS011;31681;48.982;8.394;2023-06-10T09:00:23;5.38;;;4.50;;
45970;SDS011;31681;48.982;8.394;2023-06-10T09:02:49;5.60;;;5.07;;
45970;SDS011;31681;48.982;8.394;2023-06-10T09:05:15;4.68;;;4.28;;
45970;SDS011;31681;48.982;8.394;2023-06-10T09:07:45;5.00;;;4.50;;
45970;SDS011;31681;48.982;8.394;2023-06-10T09:10:11;6.40;;;4.50;;
45970;SDS011;31681;48.982;8.394;2023-06-10T09:12:36;5.97;;;4.95;;
45970;SDS011;31681;48.982;8.394;2023-06-10T09:15:03;5.13;;;4.60;;
45970;SDS011;31681;48.982;8.394;2023-06-10T09:17:28;5.20;;;4.78;;
45970;SDS011;31681;48.982;8.394;2023-06-10T09:19:54;5.18;;;4.68;;
45970;SDS011;31681;48.982;8.394;2023-06-10T09:22:21;5.50;;;5.00;;
45970;SDS011;31681;48.982;8.394;2023-06-10T09:24:47;5.30;;;4.80;;
45970;SDS011;31681;48.982;8.394;2023-06-10T09:27:12;6.97;;;5.30;;
45970;SDS011;31681;48.982;8.394;2023-06-10T09:29:48;5.60;;;5.10;;
45970;SDS011;31681;48.982;8.394;2023-06-10T09:32:17;5.93;;;5.43;;
45970;SDS011;31681;48.982;8.394;2023-06-10T09:34:42;5.50;;;5.00;;
45970;SDS011;31681;48.982;8.394;2023-06-10T09:37:08;6.90;;;4.93;;
45970;SDS011;31681;48.982;8.394;2023-06-10T09:39:37;5.38;;;4.88;;
45970;SDS011;31681;48.982;8.394;2023-06-10T09:42:04;5.80;;;5.30;;
45970;SDS011;31681;48.982;8.394;2023-06-10T09:44:40;5.32;;;4.82;;
45970;SDS011;31681;48.982;8.394;2023-06-10T09:47:05;7.20;;;5.05;;
45970;SDS011;31681;48.982;8.394;2023-06-10T09:49:31;5.45;;;4.97;;
45970;SDS011;31681;48.982;8.394;2023-06-10T09:51:56;5.97;;;5.47;;
45970;SDS011;31681;48.982;8.394;2023-06-10T09:54:21;5.43;;;4.97;;
45970;SDS011;31681;48.982;8.394;2023-06-10T09:56:53;6.15;;;5.60;;
45970;SDS011;31681;48.982;8.394;2023-06-10T09:59:28;7.75;;;5.50;;
45970;SDS011;31681;48.982;8.394;2023-06-10T10:01:56;6.07;;;5.13;;
45970;SDS011;31681;48.982;8.394;2023-06-10T10:04:25;6.57;;;5.97;;
45970;SDS011;31681;48.982;8.394;2023-06-10T10:06:53;5.75;;;5.07;;
45970;SDS011;31681;48.982;8.394;2023-06-10T10:09:18;6.05;;;5.45;;
45970;SDS011;31681;48.982;8.394;2023-06-10T10:11:44;6.15;;;5.38;;
45970;SDS011;31681;48.982;8.394;2023-06-10T10:14:09;5.53;;;5.03;;
45970;SDS011;31681;48.982;8.394;2023-06-10T10:16:40;6.88;;;5.72;;
45970;SDS011;31681;48.982;8.394;2023-06-10T10:19:15;5.75;;;5.25;;
45970;SDS011;31681;48.982;8.394;2023-06-10T10:21:43;6.20;;;5.55;;
45970;SDS011;31681;48.982;8.394;2023-06-10T10:24:12;6.00;;;5.43;;
45970;SDS011;31681;48.982;8.394;2023-06-10T10:26:42;6.10;;;5.38;;
45970;SDS011;31681;48.982;8.394;2023-06-10T10:29:14;6.32;;;5.70;;
45970;SDS011;31681;48.982;8.394;2023-06-10T10:31:42;5.75;;;5.25;;
45970;SDS011;31681;48.982;8.394;2023-06-10T10:34:09;7.97;;;5.57;;
45970;SDS011;31681;48.982;8.394;2023-06-10T10:36:37;6.25;;;5.63;;
45970;SDS011;31681;48.982;8.394;2023-06-10T10:39:04;6.20;;;5.55;;
45970;SDS011;31681;48.982;8.394;2023-06-10T10:41:42;6.40;;;5.55;;
45970;SDS011;31681;48.982;8.394;2023-06-10T10:44:07;7.50;;;6.10;;
45970;SDS011;31681;48.982;8.394;2023-06-10T10:46:50;7.00;;;5.63;;
45970;SDS011;31681;48.982;8.394;2023-06-10T10:49:25;7.18;;;6.00;;
45970;SDS011;31681;48.982;8.394;2023-06-10T10:54:28;6.00;;;5.50;;
45970;SDS011;31681;48.982;8.394;2023-06-10T10:59:55;8.18;;;6.35;;
45970;SDS011;31681;48.982;8.394;2023-06-10T11:02:36;5.90;;;5.40;;
45970;SDS011;31681;48.982;8.394;2023-06-10T11:05:04;5.60;;;5.10;;
45970;SDS011;31681;48.982;8.394;2023-06-10T11:07:30;5.88;;;5.28;;
45970;SDS011;31681;48.982;8.394;2023-06-10T11:09:58;5.97;;;5.38;;
45970;SDS011;31681;48.982;8.394;2023-06-10T11:15:11;5.43;;;4.93;;
45970;SDS011;31681;48.982;8.394;2023-06-10T11:17:39;6.50;;;5.10;;
45970;SDS011;31681;48.982;8.394;2023-06-10T11:23:06;7.40;;;6.35;;
45970;SDS011;31681;48.982;8.394;2023-06-10T11:25:40;5.90;;;5.40;;
45970;SDS011;31681;48.982;8.394;2023-06-10T11:28:22;5.93;;;5.32;;
45970;SDS011;31681;48.982;8.394;2023-06-10T11:30:57;7.43;;;5.82;;
45970;SDS011;31681;48.982;8.394;2023-06-10T11:33:52;5.63;;;5.20;;
45970;SDS011;31681;48.982;8.394;2023-06-10T11:36:17;5.57;;;5.07;;
45970;SDS011;31681;48.982;8.394;2023-06-10T11:38:43;6.68;;;5.18;;
45970;SDS011;31681;48.982;8.394;2023-06-10T11:41:08;6.05;;;5.22;;
45970;SDS011;31681;48.982;8.394;2023-06-10T11:43:35;5.97;;;5.13;;
45970;SDS011;31681;48.982;8.394;2023-06-10T11:46:00;5.68;;;5.10;;
45970;SDS011;31681;48.982;8.394;2023-06-10T11:48:27;5.63;;;5.13;;
45970;SDS011;31681;48.982;8.394;2023-06-10T11:50:56;6.10;;;5.50;;
45970;SDS011;31681;48.982;8.394;2023-06-10T11:53:21;6.57;;;5.45;;
45970;SDS011;31681;48.982;8.394;2023-06-10T11:55:49;4.97;;;4.57;;
45970;SDS011;31681;48.982;8.394;2023-06-10T11:58:19;5.22;;;4.70;;
45970;SDS011;31681;48.982;8.394;2023-06-10T12:00:48;5.80;;;5.00;;
45970;SDS011;31681;48.982;8.394;2023-06-10T12:03:14;6.07;;;5.47;;
45970;SDS011;31681;48.982;8.394;2023-06-10T12:05:39;5.93;;;5.32;;
45970;SDS011;31681;48.982;8.394;2023-06-10T12:08:11;6.50;;;5.68;;
45970;SDS011;31681;48.982;8.394;2023-06-10T12:10:41;7.13;;;5.53;;
45970;SDS011;31681;48.982;8.394;2023-06-10T12:13:07;7.05;;;5.65;;
45970;SDS011;31681;48.982;8.394;2023-06-10T12:15:34;5.80;;;5.30;;
45970;SDS011;31681;48.982;8.394;2023-06-10T12:17:59;5.40;;;4.90;;
45970;SDS011;31681;48.982;8.394;2023-06-10T12:20:25;6.45;;;4.90;;
45970;SDS011;31681;48.982;8.394;2023-06-10T12:22:53;5.43;;;4.93;;
45970;SDS011;31681;48.982;8.394;2023-06-10T12:25:23;5.90;;;5.30;;
45970;SDS011;31681;48.982;8.394;2023-06-10T12:27:50;5.97;;;4.82;;
45970;SDS011;31681;48.982;8.394;2023-06-10T12:30:23;5.93;;;5.10;;
45970;SDS011;31681;48.982;8.394;2023-06-10T12:32:50;5.40;;;4.90;;
45970;SDS011;31681;48.982;8.394;2023-06-10T12:35:19;6.90;;;5.18;;
45970;SDS011;31681;48.982;8.394;2023-06-10T12:40:26;5.43;;;4.93;;
45970;SDS011;31681;48.982;8.394;2023-06-10T12:43:00;5.03;;;4.53;;
45970;SDS011;31681;48.982;8.394;2023-06-10T12:45:26;5.43;;;4.93;;
45970;SDS011;31681;48.982;8.394;2023-06-10T12:48:03;5.32;;;4.80;;
45970;SDS011;31681;48.982;8.394;2023-06-10T12:50:29;5.65;;;5.00;;
45970;SDS011;31681;48.982;8.394;2023-06-10T12:53:05;6.03;;;5.10;;
45970;SDS011;31681;48.982;8.394;2023-06-10T12:55:40;5.45;;;4.65;;
45970;SDS011;31681;48.982;8.394;2023-06-10T12:58:11;5.47;;;5.00;;
45970;SDS011;31681;48.982;8.394;2023-06-10T13:00:42;5.10;;;4.60;;
45970;SDS011;31681;48.982;8.394;2023-06-10T13:03:08;4.75;;;4.40;;
45970;SDS011;31681;48.982;8.394;2023-06-10T13:05:34;6.40;;;4.32;;
45970;SDS011;31681;48.982;8.394;2023-06-10T13:08:00;5.13;;;4.63;;
45970;SDS011;31681;48.982;8.394;2023-06-10T13:10:28;4.55;;;4.20;;
45970;SDS011;31681;48.982;8.394;2023-06-10T13:12:53;5.32;;;4.80;;
45970;SDS011;31681;48.982;8.394;2023-06-10T13:15:24;4.13;;;3.80;;
45970;SDS011;31681;48.982;8.394;2023-06-10T13:17:51;5.85;;;4.15;;
45970;SDS011;31681;48.982;8.394;2023-06-10T13:20:17;6.07;;;4.78;;
45970;SDS011;31681;48.982;8.394;2023-06-10T13:22:42;4.85;;;4.30;;
45970;SDS011;31681;48.982;8.394;2023-06-10T13:25:10;4.43;;;4.10;;
45970;SDS011;31681;48.982;8.394;2023-06-10T13:27:36;4.93;;;4.53;;
45970;SDS011;31681;48.982;8.394;2023-06-10T13:30:08;5.03;;;4.53;;
45970;SDS011;31681;48.982;8.394;2023-06-10T13:32:33;4.95;;;4.32;;
45970;SDS011;31681;48.982;8.394;2023-06-10T13:34:59;5.82;;;4.25;;
45970;SDS011;31681;48.982;8.394;2023-06-10T13:37:24;4.47;;;4.07;;
45970;SDS011;31681;48.982;8.394;2023-06-10T13:39:50;4.95;;;4.55;;
45970;SDS011;31681;48.982;8.394;2023-06-10T13:42:19;4.80;;;4.40;;
45970;SDS011;31681;48.982;8.394;2023-06-10T13:44:45;4.90;;;4.50;;
45970;SDS011;31681;48.982;8.394;2023-06-10T13:47:12;5.03;;;4.60;;
45970;SDS011;31681;48.982;8.394;2023-06-10T13:49:37;4.82;;;4.30;;
45970;SDS011;31681;48.982;8.394;2023-06-10T13:52:02;5.20;;;4.65;;
45970;SDS011;31681;48.982;8.394;2023-06-10T13:54:28;5.28;;;4.78;;
45970;SDS011;31681;48.982;8.394;2023-06-10T13:56:53;7.10;;;5.25;;
45970;SDS011;31681;48.982;8.394;2023-06-10T13:59:19;5.13;;;4.60;;
45970;SDS011;31681;48.982;8.394;2023-06-10T14:01:45;5.20;;;4.70;;
45970;SDS011;31681;48.982;8.394;2023-06-10T14:04:10;5.25;;;4.75;;
45970;SDS011;31681;48.982;8.394;2023-06-10T14:06:35;6.80;;;4.55;;
45970;SDS011;31681;48.982;8.394;2023-06-10T14:09:01;5.00;;;4.50;;
45970;SDS011;31681;48.982;8.394;2023-06-10T14:11:26;5.10;;;4.65;;
45970;SDS011;31681;48.982;8.394;2023-06-10T14:13:51;4.30;;;3.88;;
45970;SDS011;31681;48.982;8.394;2023-06-10T14:16:17;5.82;;;4.57;;
45970;SDS011;31681;48.982;8.394;2023-06-10T14:18:42;4.80;;;4.40;;
45970;SDS011;31681;48.982;8.394;2023-06-10T14:21:07;5.05;;;4.65;;
45970;SDS011;31681;48.982;8.394;2023-06-10T14:23:32;4.53;;;4.13;;
45970;SDS011;31681;48.982;8.394;2023-06-10T14:25:58;4.90;;;4.50;;
45970;SDS011;31681;48.982;8.394;2023-06-10T14:28:24;5.65;;;4.88;;
45970;SDS011;31681;48.982;8.394;2023-06-10T14:30:51;5.13;;;4.63;;
45970;SDS011;31681;48.982;8.394;2023-06-10T14:33:16;6.55;;;4.05;;
45970;SDS011;31681;48.982;8.394;2023-06-10T14:35:44;5.70;;;4.47;;
45970;SDS011;31681;48.982;8.394;2023-06-10T14:38:09;5.32;;;4.80;;
45970;SDS011;31681;48.982;8.394;2023-06-10T14:40:35;4.47;;;4.05;;
45970;SDS011;31681;48.982;8.394;2023-06-10T14:43:00;4.70;;;4.30;;
45970;SDS011;31681;48.982;8.394;2023-06-10T14:45:29;5.45;;;4.38;;
45970;SDS011;31681;48.982;8.394;2023-06-10T14:47:54;5.80;;;3.92;;
45970;SDS011;31681;48.982;8.394;2023-06-10T14:50:19;5.37;;;4.50;;
45970;SDS011;31681;48.982;8.394;2023-06-10T14:52:45;4.30;;;3.90;;
45970;SDS011;31681;48.982;8.394;2023-06-10T14:55:15;5.95;;;4.15;;
45970;SDS011;31681;48.982;8.394;2023-06-10T14:57:53;4.88;;;4.35;;
45970;SDS011;31681;48.982;8.394;2023-06-10T15:00:19;4.72;;;3.95;;
45970;SDS011;31681;48.982;8.394;2023-06-10T15:02:57;5.85;;;4.10;;
45970;SDS011;31681;48.982;8.394;2023-06-10T15:05:23;4.13;;;3.72;;
45970;SDS011;31681;48.982;8.394;2023-06-10T15:07:48;4.82;;;4.45;;
45970;SDS011;31681;48.982;8.394;2023-06-10T15:10:14;5.55;;;4.72;;
45970;SDS011;31681;48.982;8.394;2023-06-10T15:12:40;5.40;;;4.00;;
45970;SDS011;31681;48.982;8.394;2023-06-10T15:15:06;4.07;;;3.78;;
45970;SDS011;31681;48.982;8.394;2023-06-10T15:17:31;4.30;;;4.00;;
45970;SDS011;31681;48.982;8.394;2023-06-10T15:19:56;4.35;;;4.05;;